DUS weather

Düsseldorf Airport
Düsseldorf, North Rhine-Westphalia, Germany

Public forecast

Using degrees Celsius for public forecast. Weather courtesy of forecast.io.

Current aviation weather report (METAR) for Düsseldorf Airport

Retrieved 2019/10/17 05:20 UTC (0 seconds ago):

EDDL 170520Z 19009KT 9999 BKN020 15/13 Q1008 NOSIG

Aviation forecast (TAF) for Düsseldorf Airport

Retrieved 2019-10-17 00:27 UTC (5 hours ago):

TAF EDDL 162300Z 1700/1806 16008KT 8000 BKN025 TEMPO 1700/1708 3500 -RA BKN008 TEMPO 1718/1806 4000 -RA BR BKN008